createdAt,value
2022-11-20T00:01:27.389Z,12.32
2022-11-20T00:04:14.525Z,11.57
2022-11-20T00:07:01.639Z,12.75
2022-11-20T00:09:50.677Z,13.98
2022-11-20T00:12:32.369Z,12.90
2022-11-20T00:15:20.519Z,13.00
2022-11-20T00:18:08.760Z,12.88
2022-11-20T00:21:02.967Z,12.10
2022-11-20T00:23:54.925Z,11.52
2022-11-20T00:26:42.418Z,13.63
2022-11-20T00:29:29.619Z,12.77
2022-11-20T00:32:16.620Z,15.65
2022-11-20T00:35:03.912Z,11.13
2022-11-20T00:37:51.197Z,10.88
2022-11-20T00:40:38.333Z,10.30
2022-11-20T00:43:26.002Z,12.43
2022-11-20T00:46:18.201Z,13.30
2022-11-20T00:49:05.236Z,13.40
2022-11-20T00:51:52.430Z,7.68
2022-11-20T00:54:41.183Z,12.95
2022-11-20T00:57:28.257Z,11.77
2022-11-20T01:00:16.286Z,14.45
2022-11-20T01:03:03.542Z,15.02
2022-11-20T01:05:50.814Z,13.15
2022-11-20T01:08:38.309Z,9.75
2022-11-20T01:11:33.890Z,10.63
2022-11-20T01:14:21.568Z,13.40
2022-11-20T01:17:08.742Z,15.02
2022-11-20T01:19:55.978Z,14.13
2022-11-20T01:22:43.274Z,13.77
2022-11-20T01:25:30.626Z,15.25
2022-11-20T01:28:17.849Z,14.75
2022-11-20T01:31:20.323Z,12.63
2022-11-20T01:34:11.765Z,15.52
2022-11-20T01:36:58.913Z,15.77
2022-11-20T01:39:46.089Z,14.65
2022-11-20T01:42:52.354Z,18.08
2022-11-20T01:46:02.265Z,14.02
2022-11-20T01:49:11.861Z,15.05
2022-11-20T01:52:16.000Z,13.48
2022-11-20T01:55:10.246Z,13.45
2022-11-20T01:57:58.713Z,17.00
2022-11-20T02:00:47.345Z,18.13
2022-11-20T02:03:35.043Z,16.80
2022-11-20T02:06:30.058Z,17.67
2022-11-20T02:09:17.771Z,16.25
2022-11-20T02:12:05.805Z,13.77
2022-11-20T02:14:52.946Z,18.58
2022-11-20T02:17:41.930Z,16.92
2022-11-20T02:20:29.293Z,18.98
2022-11-20T02:23:32.741Z,17.00
2022-11-20T02:26:23.016Z,21.38
2022-11-20T02:29:10.401Z,17.13
2022-11-20T02:31:59.974Z,15.93
2022-11-20T02:34:47.239Z,17.17
2022-11-20T02:37:39.848Z,18.33
2022-11-20T02:40:30.216Z,11.68
2022-11-20T02:43:17.309Z,17.05
2022-11-20T02:46:04.414Z,18.70
2022-11-20T02:48:51.502Z,17.23
2022-11-20T02:51:40.713Z,16.90
2022-11-20T02:54:30.298Z,16.77
2022-11-20T02:57:17.482Z,18.33
2022-11-20T03:00:05.565Z,16.90
2022-11-20T03:02:52.917Z,16.88
2022-11-20T03:05:40.078Z,16.80
2022-11-20T03:08:27.400Z,17.55
2022-11-20T03:11:14.479Z,19.90
2022-11-20T03:14:06.145Z,18.25
2022-11-20T03:16:54.188Z,17.52
2022-11-20T03:19:41.477Z,17.55
2022-11-20T03:22:31.003Z,12.23
2022-11-20T03:25:18.140Z,17.50
2022-11-20T03:28:05.416Z,17.20
2022-11-20T03:30:52.573Z,17.45
2022-11-20T03:33:41.381Z,17.08
2022-11-20T03:36:29.628Z,16.98
2022-11-20T03:39:16.748Z,17.25
2022-11-20T03:42:25.933Z,15.52
2022-11-20T03:45:18.195Z,16.98
2022-11-20T03:48:06.059Z,17.00
2022-11-20T03:50:54.477Z,15.15
2022-11-20T03:53:43.619Z,15.82
2022-11-20T03:56:33.104Z,15.70
2022-11-20T03:59:21.145Z,14.52
2022-11-20T04:02:08.536Z,13.85
2022-11-20T04:04:56.044Z,10.25
2022-11-20T04:07:43.363Z,13.68
2022-11-20T04:10:30.747Z,11.73
2022-11-20T04:13:18.020Z,12.57
2022-11-20T04:16:06.660Z,11.90
2022-11-20T04:18:59.340Z,12.80
2022-11-20T04:21:46.471Z,10.52
2022-11-20T04:24:33.857Z,9.68
2022-11-20T04:27:20.940Z,10.77
2022-11-20T04:30:08.736Z,10.88
2022-11-20T04:32:56.035Z,10.32
2022-11-20T04:35:43.880Z,10.75
2022-11-20T04:38:31.267Z,9.25
2022-11-20T04:41:20.432Z,10.52
2022-11-20T04:44:08.042Z,7.47
2022-11-20T04:46:57.137Z,8.20
2022-11-20T04:49:44.448Z,8.15
2022-11-20T04:52:31.880Z,8.40
2022-11-20T04:55:19.151Z,7.35
2022-11-20T04:58:06.532Z,8.32
2022-11-20T05:00:53.698Z,7.95
2022-11-20T05:03:42.627Z,8.75
2022-11-20T05:06:30.060Z,8.38
2022-11-20T05:09:17.152Z,7.80
2022-11-20T05:12:04.617Z,6.80
2022-11-20T05:14:51.758Z,8.55
2022-11-20T05:17:39.059Z,7.65
2022-11-20T05:20:26.134Z,6.85
2022-11-20T05:23:13.255Z,7.55
2022-11-20T05:26:01.251Z,6.28
2022-11-20T05:28:48.999Z,7.10
2022-11-20T05:31:37.130Z,7.88
2022-11-20T05:34:24.299Z,8.05
2022-11-20T05:37:11.461Z,7.32
2022-11-20T05:39:58.860Z,7.80
2022-11-20T05:42:46.040Z,7.93
2022-11-20T05:45:33.958Z,6.45
2022-11-20T05:48:21.888Z,7.85
2022-11-20T05:51:11.083Z,7.72
2022-11-20T05:53:59.412Z,5.88
2022-11-20T05:56:46.621Z,7.80
2022-11-20T05:59:33.903Z,7.32
2022-11-20T06:02:21.140Z,7.13
2022-11-20T06:05:08.796Z,7.78
2022-11-20T06:07:55.855Z,5.75
2022-11-20T06:10:43.115Z,7.63
2022-11-20T06:13:33.061Z,7.70
2022-11-20T06:16:21.374Z,6.68
2022-11-20T06:19:08.752Z,6.70
2022-11-20T06:21:55.964Z,6.68
2022-11-20T06:24:43.164Z,6.75
2022-11-20T06:27:30.200Z,5.38
2022-11-20T06:30:17.490Z,6.30
2022-11-20T06:33:04.681Z,4.90
2022-11-20T06:35:56.861Z,6.28
2022-11-20T06:38:47.112Z,5.82
2022-11-20T06:41:34.362Z,6.20
2022-11-20T06:44:21.759Z,6.32
2022-11-20T06:47:09.177Z,7.18
2022-11-20T06:49:56.715Z,6.30
2022-11-20T06:52:44.093Z,6.97
2022-11-20T06:55:32.595Z,6.15
2022-11-20T06:58:20.048Z,6.68
2022-11-20T07:01:11.560Z,7.35
2022-11-20T07:03:59.448Z,7.13
2022-11-20T07:06:46.938Z,7.35
2022-11-20T07:09:35.196Z,8.20
2022-11-20T07:12:22.715Z,6.60
2022-11-20T07:15:11.164Z,7.45
2022-11-20T07:18:00.993Z,7.22
2022-11-20T07:20:50.184Z,6.93
2022-11-20T09:53:23.951Z,2.15
2022-11-20T10:09:55.147Z,4.50
2022-11-20T10:13:19.555Z,4.43
2022-11-20T10:16:37.999Z,4.38
2022-11-20T10:19:41.577Z,4.57
2022-11-20T10:23:00.799Z,3.58
2022-11-20T10:26:18.195Z,6.20
2022-11-20T10:29:18.008Z,5.22
2022-11-20T10:32:17.745Z,7.57
2022-11-20T10:35:28.721Z,6.10
2022-11-20T10:38:22.524Z,6.32
2022-11-20T10:41:27.523Z,9.35
2022-11-20T10:44:40.804Z,8.98
2022-11-20T10:47:29.334Z,6.72
2022-11-20T10:50:22.494Z,11.85
2022-11-20T10:53:24.982Z,6.47
2022-11-20T10:56:39.195Z,3.67
2022-11-20T10:59:38.439Z,7.25
2022-11-20T11:03:04.412Z,5.90
2022-11-20T11:06:13.163Z,4.70
2022-11-20T11:09:28.690Z,4.75
2022-11-20T11:12:16.171Z,5.18
2022-11-20T11:15:03.671Z,8.38
2022-11-20T11:17:50.917Z,7.80
2022-11-20T11:20:39.280Z,5.22
2022-11-20T11:23:41.416Z,4.13
2022-11-20T11:26:30.409Z,5.80
2022-11-20T11:29:19.461Z,8.05
2022-11-20T11:32:14.886Z,7.97
2022-11-20T11:35:08.224Z,6.13
2022-11-20T11:38:16.318Z,5.28
2022-11-20T11:41:05.480Z,5.32
2022-11-20T11:44:44.182Z,5.07
2022-11-20T11:47:34.493Z,3.08
2022-11-20T11:50:27.741Z,4.97
2022-11-20T11:53:22.361Z,5.22
2022-11-20T11:56:16.191Z,3.80
2022-11-20T11:59:13.085Z,6.10
2022-11-20T12:02:06.604Z,5.68
2022-11-20T12:05:04.446Z,4.10
2022-11-20T12:08:12.377Z,4.72
2022-11-20T12:12:12.286Z,5.80
2022-11-20T12:15:00.579Z,4.50
2022-11-20T12:17:59.585Z,5.82
2022-11-20T12:20:53.620Z,4.10
2022-11-20T12:24:00.613Z,5.13
2022-11-20T12:27:10.596Z,5.22
2022-11-20T12:30:12.408Z,5.25
2022-11-20T12:37:45.446Z,5.45
2022-11-20T12:45:24.208Z,4.40
2022-11-20T12:48:44.999Z,4.78
2022-11-20T12:52:21.408Z,4.10
2022-11-20T13:18:57.087Z,3.25
2022-11-20T13:21:53.272Z,3.30
2022-11-20T13:24:52.403Z,3.20
2022-11-20T13:27:51.573Z,2.35
2022-11-20T13:30:51.685Z,2.30
2022-11-20T13:33:40.469Z,2.35
2022-11-20T13:36:30.289Z,2.05
2022-11-20T13:39:33.316Z,2.40
2022-11-20T13:42:32.543Z,3.00
2022-11-20T13:45:28.224Z,2.03
2022-11-20T13:48:26.800Z,2.42
2022-11-20T13:51:35.736Z,2.60
2022-11-20T13:55:00.661Z,3.45
2022-11-20T13:58:09.925Z,2.10
2022-11-20T14:01:17.597Z,2.22
2022-11-20T14:04:10.553Z,2.20
2022-11-20T14:07:00.849Z,2.17
2022-11-20T14:09:57.708Z,2.22
2022-11-20T14:12:45.069Z,2.08
2022-11-20T14:15:39.216Z,1.50
2022-11-20T14:18:30.921Z,1.80
2022-11-20T14:21:30.452Z,1.65
2022-11-20T14:24:26.183Z,1.70
2022-11-20T14:27:16.884Z,1.88
2022-11-20T14:30:05.740Z,2.00
2022-11-20T14:32:57.124Z,1.63
2022-11-20T14:35:50.464Z,1.83
2022-11-20T14:38:37.707Z,2.22
2022-11-20T14:41:25.528Z,2.10
2022-11-20T14:44:13.009Z,1.80
2022-11-20T14:47:05.146Z,2.10
2022-11-20T14:49:54.307Z,2.00
2022-11-20T14:52:58.043Z,5.82
2022-11-20T14:55:58.831Z,1.10
2022-11-20T14:58:57.531Z,1.45
2022-11-20T15:02:03.408Z,1.52
2022-11-20T15:04:57.508Z,1.00
2022-11-20T15:08:34.931Z,1.23
2022-11-20T15:11:29.777Z,2.13
2022-11-20T15:14:20.520Z,1.27
2022-11-20T15:17:12.997Z,1.70
2022-11-20T15:20:06.985Z,1.00
2022-11-20T15:22:54.328Z,1.20
2022-11-20T15:25:42.863Z,1.50
2022-11-20T15:28:48.587Z,2.92
2022-11-20T15:31:35.868Z,1.88
2022-11-20T15:34:23.193Z,5.47
2022-11-20T15:37:10.654Z,1.17
2022-11-20T15:39:57.805Z,6.05
2022-11-20T15:43:06.786Z,8.77
2022-11-20T15:46:01.441Z,3.50
2022-11-20T15:48:54.674Z,5.10
2022-11-20T15:51:47.913Z,4.18
2022-11-20T15:54:35.042Z,6.53
2022-11-20T15:57:22.242Z,4.40
2022-11-20T16:00:10.257Z,3.15
2022-11-20T16:02:57.935Z,6.22
2022-11-20T16:05:45.829Z,3.53
2022-11-20T16:08:33.213Z,4.10
2022-11-20T16:11:20.416Z,3.13
2022-11-20T16:14:30.561Z,4.28
2022-11-20T16:17:43.360Z,3.58
2022-11-20T16:20:30.573Z,4.45
2022-11-20T16:23:18.121Z,3.60
2022-11-20T16:26:18.242Z,2.88
2022-11-20T16:29:06.505Z,2.55
2022-11-20T16:31:53.669Z,1.95
2022-11-20T16:34:40.806Z,2.15
2022-11-20T16:37:27.918Z,2.35
2022-11-20T16:40:15.313Z,2.58
2022-11-20T16:43:09.898Z,4.45
2022-11-20T16:45:57.160Z,2.30
2022-11-20T16:48:44.305Z,3.15
2022-11-20T16:51:35.429Z,2.70
2022-11-20T16:54:23.371Z,2.70
2022-11-20T16:57:12.069Z,2.55
2022-11-20T17:00:02.467Z,2.78
2022-11-20T17:02:49.936Z,2.30
2022-11-20T17:05:37.324Z,2.60
2022-11-20T17:08:24.465Z,2.70
2022-11-20T17:11:20.767Z,3.17
2022-11-20T17:14:08.480Z,3.10
2022-11-20T17:16:55.642Z,2.83
2022-11-20T17:19:42.825Z,3.22
2022-11-20T17:22:29.901Z,3.67
2022-11-20T17:25:18.480Z,2.92
2022-11-20T17:28:12.708Z,3.38
2022-11-20T17:31:07.582Z,2.78
2022-11-20T17:37:42.226Z,3.45
2022-11-20T17:40:30.726Z,3.05
2022-11-20T17:43:17.937Z,3.42
2022-11-20T17:46:13.149Z,3.40
2022-11-20T17:49:01.030Z,3.50
2022-11-20T17:51:48.144Z,3.50
2022-11-20T17:54:35.295Z,3.20
2022-11-20T17:57:42.459Z,3.08
2022-11-20T18:00:30.597Z,3.50
2022-11-20T18:03:17.791Z,3.25
2022-11-20T18:06:09.395Z,3.42
2022-11-20T18:08:59.041Z,3.22
2022-11-20T18:11:46.292Z,3.55
2022-11-20T18:14:34.724Z,3.40
2022-11-20T18:17:22.193Z,3.50
2022-11-20T18:23:16.749Z,3.08
2022-11-20T18:26:03.973Z,2.90
2022-11-20T18:28:51.443Z,3.40
2022-11-20T18:31:38.746Z,3.40
2022-11-20T18:34:26.934Z,2.97
2022-11-20T18:37:16.277Z,3.30
2022-11-20T18:40:03.796Z,4.00
2022-11-20T18:43:10.108Z,4.10
2022-11-20T18:46:04.461Z,3.65
2022-11-20T18:48:52.205Z,3.30
2022-11-20T18:51:40.575Z,3.40
2022-11-20T18:54:27.807Z,3.15
2022-11-20T18:57:17.867Z,3.38
2022-11-20T19:00:10.775Z,3.13
2022-11-20T19:02:58.197Z,3.50
2022-11-20T19:05:45.576Z,3.67
2022-11-20T19:08:34.849Z,5.25
2022-11-20T19:11:21.994Z,3.25
2022-11-20T19:14:11.691Z,3.58
2022-11-20T19:16:59.070Z,2.88
2022-11-20T19:19:46.839Z,2.72
2022-11-20T19:22:34.074Z,6.43
2022-11-20T19:25:37.736Z,2.05
2022-11-20T19:31:46.793Z,1.85
2022-11-20T19:34:34.020Z,2.50
2022-11-20T19:37:21.517Z,2.00
2022-11-20T19:40:09.110Z,2.90
2022-11-20T19:42:56.471Z,2.60
2022-11-20T19:45:43.737Z,2.28
2022-11-20T19:48:32.621Z,2.60
2022-11-20T19:51:25.971Z,2.33
2022-11-20T19:54:13.606Z,3.15
2022-11-20T19:57:01.272Z,2.80
2022-11-20T19:59:49.018Z,3.03
2022-11-20T20:02:36.461Z,2.70
2022-11-20T20:05:23.720Z,3.63
2022-11-20T20:08:15.221Z,3.80
2022-11-20T20:11:18.289Z,3.85
2022-11-20T20:16:53.640Z,4.25
2022-11-20T20:19:40.817Z,4.45
2022-11-20T20:22:28.077Z,3.53
2022-11-20T20:25:16.507Z,4.80
2022-11-20T20:28:04.221Z,4.47
2022-11-20T20:30:51.588Z,5.00
2022-11-20T20:33:39.912Z,5.35
2022-11-20T20:36:27.198Z,4.50
2022-11-20T20:39:14.405Z,4.88
2022-11-20T20:42:01.527Z,4.47
2022-11-20T20:45:07.084Z,3.85
2022-11-20T20:47:55.920Z,3.90
2022-11-20T20:50:43.488Z,3.75
2022-11-20T20:53:31.206Z,3.85
2022-11-20T20:56:18.959Z,3.15
2022-11-20T20:59:06.501Z,3.25
2022-11-20T21:01:53.678Z,3.10
2022-11-20T21:04:41.270Z,3.40
2022-11-20T21:07:30.112Z,3.17
2022-11-20T21:10:22.456Z,3.08
2022-11-20T21:13:11.440Z,3.35
2022-11-20T21:15:58.840Z,2.75
2022-11-20T21:18:46.567Z,2.40
2022-11-20T21:21:52.498Z,2.97
2022-11-20T21:24:39.940Z,2.80
2022-11-20T21:27:27.451Z,2.65
2022-11-20T21:30:14.918Z,2.13
2022-11-20T21:33:02.171Z,1.92
2022-11-20T21:35:49.371Z,2.30
2022-11-20T21:38:36.828Z,2.00
2022-11-20T21:41:25.064Z,2.35
2022-11-20T21:44:41.704Z,2.40
2022-11-20T21:47:21.693Z,1.85
2022-11-20T21:50:09.267Z,2.40
2022-11-20T21:52:56.442Z,2.38
2022-11-20T21:55:43.551Z,2.65
2022-11-20T21:58:38.732Z,2.42
2022-11-20T22:01:28.514Z,2.40
2022-11-20T22:04:16.006Z,3.20
2022-11-20T22:07:03.232Z,2.80
2022-11-20T22:09:50.352Z,2.60
2022-11-20T22:12:37.940Z,2.10
2022-11-20T22:15:45.844Z,2.17
2022-11-20T22:18:32.293Z,2.13
2022-11-20T22:21:23.297Z,2.28
2022-11-20T22:24:15.979Z,2.35
2022-11-20T22:27:03.457Z,2.13
2022-11-20T22:29:50.605Z,1.95
2022-11-20T22:32:37.937Z,1.48
2022-11-20T22:35:25.264Z,2.15
2022-11-20T22:38:12.365Z,2.15
2022-11-20T22:41:08.106Z,2.53
2022-11-20T22:43:59.801Z,2.17
2022-11-20T22:46:46.962Z,2.00
2022-11-20T22:49:34.130Z,2.03
2022-11-20T22:52:21.341Z,1.80
2022-11-20T22:55:12.292Z,1.98
2022-11-20T22:58:04.648Z,1.80
2022-11-20T23:00:52.124Z,1.80
2022-11-20T23:03:40.593Z,1.45
2022-11-20T23:06:29.845Z,1.92
2022-11-20T23:09:17.475Z,1.77
2022-11-20T23:12:04.924Z,2.00
2022-11-20T23:14:52.039Z,1.60
2022-11-20T23:17:39.147Z,1.20
2022-11-20T23:20:30.993Z,1.63
2022-11-20T23:23:22.000Z,1.40
2022-11-20T23:26:11.793Z,1.70
2022-11-20T23:29:00.587Z,2.00
2022-11-20T23:31:48.052Z,1.60
2022-11-20T23:34:35.306Z,1.55
2022-11-20T23:37:22.526Z,1.40
2022-11-20T23:40:10.193Z,1.58
2022-11-20T23:43:15.243Z,1.55
2022-11-20T23:46:03.480Z,1.50
2022-11-20T23:48:50.771Z,1.73
2022-11-20T23:51:38.007Z,1.77
2022-11-20T23:54:25.651Z,1.77
2022-11-20T23:57:13.105Z,1.52
